sensor_id;sensor_type;location;lat;lon;timestamp;temperature;humidity
18712;DHT22;9485;49.386;8.674;2022-10-26T00:01:35;18.30;88.90
18712;DHT22;9485;49.386;8.674;2022-10-26T00:06:56;18.20;89.10
18712;DHT22;9485;49.386;8.674;2022-10-26T00:12:18;18.10;89.50
18712;DHT22;9485;49.386;8.674;2022-10-26T00:17:38;17.90;89.50
18712;DHT22;9485;49.386;8.674;2022-10-26T00:22:59;17.90;89.90
18712;DHT22;9485;49.386;8.674;2022-10-26T00:28:21;17.80;90.10
18712;DHT22;9485;49.386;8.674;2022-10-26T00:33:41;17.80;90.10
18712;DHT22;9485;49.386;8.674;2022-10-26T00:39:02;17.80;90.20
18712;DHT22;9485;49.386;8.674;2022-10-26T00:44:56;17.80;90.30
18712;DHT22;9485;49.386;8.674;2022-10-26T00:50:23;17.80;89.90
18712;DHT22;9485;49.386;8.674;2022-10-26T00:55:49;17.80;90.10
18712;DHT22;9485;49.386;8.674;2022-10-26T01:01:12;17.90;90.10
18712;DHT22;9485;49.386;8.674;2022-10-26T01:06:35;18.00;90.10
18712;DHT22;9485;49.386;8.674;2022-10-26T01:11:57;18.10;89.90
18712;DHT22;9485;49.386;8.674;2022-10-26T01:17:27;18.20;90.00
18712;DHT22;9485;49.386;8.674;2022-10-26T01:23:03;18.40;88.70
18712;DHT22;9485;49.386;8.674;2022-10-26T01:28:39;18.50;88.90
18712;DHT22;9485;49.386;8.674;2022-10-26T01:34:22;18.60;87.80
18712;DHT22;9485;49.386;8.674;2022-10-26T01:39:53;18.70;88.50
18712;DHT22;9485;49.386;8.674;2022-10-26T01:45:18;18.70;88.10
18712;DHT22;9485;49.386;8.674;2022-10-26T01:50:41;18.80;88.30
18712;DHT22;9485;49.386;8.674;2022-10-26T01:56:04;18.80;87.70
18712;DHT22;9485;49.386;8.674;2022-10-26T02:07:47;18.70;85.80
18712;DHT22;9485;49.386;8.674;2022-10-26T02:13:16;18.70;86.30
18712;DHT22;9485;49.386;8.674;2022-10-26T02:18:50;18.70;86.60
18712;DHT22;9485;49.386;8.674;2022-10-26T02:24:22;18.70;86.40
18712;DHT22;9485;49.386;8.674;2022-10-26T02:29:45;18.80;86.20
18712;DHT22;9485;49.386;8.674;2022-10-26T02:35:08;18.80;87.00
18712;DHT22;9485;49.386;8.674;2022-10-26T02:40:33;18.80;86.80
18712;DHT22;9485;49.386;8.674;2022-10-26T02:45:58;18.80;86.70
18712;DHT22;9485;49.386;8.674;2022-10-26T02:51:30;18.70;86.70
18712;DHT22;9485;49.386;8.674;2022-10-26T02:57:00;18.50;86.70
18712;DHT22;9485;49.386;8.674;2022-10-26T03:02:28;18.40;87.40
18712;DHT22;9485;49.386;8.674;2022-10-26T03:07:49;18.30;88.00
18712;DHT22;9485;49.386;8.674;2022-10-26T03:13:12;18.20;88.40
18712;DHT22;9485;49.386;8.674;2022-10-26T03:18:33;18.10;88.50
18712;DHT22;9485;49.386;8.674;2022-10-26T03:23:54;18.00;88.70
18712;DHT22;9485;49.386;8.674;2022-10-26T03:29:16;18.00;88.90
18712;DHT22;9485;49.386;8.674;2022-10-26T03:34:36;18.00;88.80
18712;DHT22;9485;49.386;8.674;2022-10-26T03:39:57;18.00;88.90
18712;DHT22;9485;49.386;8.674;2022-10-26T03:45:19;18.10;89.00
18712;DHT22;9485;49.386;8.674;2022-10-26T03:50:39;18.10;88.50
18712;DHT22;9485;49.386;8.674;2022-10-26T03:56:00;18.20;88.70
18712;DHT22;9485;49.386;8.674;2022-10-26T04:01:22;18.20;88.90
18712;DHT22;9485;49.386;8.674;2022-10-26T04:06:43;18.30;88.60
18712;DHT22;9485;49.386;8.674;2022-10-26T04:12:04;18.30;88.80
18712;DHT22;9485;49.386;8.674;2022-10-26T04:17:27;18.30;88.80
18712;DHT22;9485;49.386;8.674;2022-10-26T04:22:56;18.30;88.50
18712;DHT22;9485;49.386;8.674;2022-10-26T04:28:17;18.30;88.40
18712;DHT22;9485;49.386;8.674;2022-10-26T04:33:39;18.20;88.40
18712;DHT22;9485;49.386;8.674;2022-10-26T04:39:00;18.20;87.90
18712;DHT22;9485;49.386;8.674;2022-10-26T04:44:21;18.20;88.30
18712;DHT22;9485;49.386;8.674;2022-10-26T04:49:43;18.20;88.60
18712;DHT22;9485;49.386;8.674;2022-10-26T04:55:05;18.20;88.10
18712;DHT22;9485;49.386;8.674;2022-10-26T05:00:26;18.20;88.10
18712;DHT22;9485;49.386;8.674;2022-10-26T05:05:49;18.20;88.10
18712;DHT22;9485;49.386;8.674;2022-10-26T05:11:10;18.20;87.90
18712;DHT22;9485;49.386;8.674;2022-10-26T05:16:31;18.30;88.40
18712;DHT22;9485;49.386;8.674;2022-10-26T05:21:54;18.30;88.30
18712;DHT22;9485;49.386;8.674;2022-10-26T05:27:14;18.30;88.10
18712;DHT22;9485;49.386;8.674;2022-10-26T05:32:35;18.30;88.30
18712;DHT22;9485;49.386;8.674;2022-10-26T05:37:57;18.30;88.20
18712;DHT22;9485;49.386;8.674;2022-10-26T05:43:18;18.20;88.20
18712;DHT22;9485;49.386;8.674;2022-10-26T05:48:40;18.20;88.50
18712;DHT22;9485;49.386;8.674;2022-10-26T05:54:03;18.10;88.80
18712;DHT22;9485;49.386;8.674;2022-10-26T05:59:24;18.00;88.80
18712;DHT22;9485;49.386;8.674;2022-10-26T06:04:45;18.00;89.10
18712;DHT22;9485;49.386;8.674;2022-10-26T06:10:11;18.00;89.30
18712;DHT22;9485;49.386;8.674;2022-10-26T06:15:39;17.90;89.30
18712;DHT22;9485;49.386;8.674;2022-10-26T06:21:29;17.90;89.00
18712;DHT22;9485;49.386;8.674;2022-10-26T06:27:10;18.00;88.40
18712;DHT22;9485;49.386;8.674;2022-10-26T06:32:40;18.00;89.10
18712;DHT22;9485;49.386;8.674;2022-10-26T06:38:10;18.00;89.40
18712;DHT22;9485;49.386;8.674;2022-10-26T06:43:35;18.10;89.30
18712;DHT22;9485;49.386;8.674;2022-10-26T06:49:01;18.00;89.40
18712;DHT22;9485;49.386;8.674;2022-10-26T06:54:41;18.10;89.90
18712;DHT22;9485;49.386;8.674;2022-10-26T07:00:15;18.10;90.00
18712;DHT22;9485;49.386;8.674;2022-10-26T07:05:39;18.10;89.70
18712;DHT22;9485;49.386;8.674;2022-10-26T07:10:59;18.10;90.00
18712;DHT22;9485;49.386;8.674;2022-10-26T07:16:22;18.00;90.30
18712;DHT22;9485;49.386;8.674;2022-10-26T07:21:43;18.10;90.10
18712;DHT22;9485;49.386;8.674;2022-10-26T07:27:04;18.00;90.20
18712;DHT22;9485;49.386;8.674;2022-10-26T07:32:26;18.10;90.30
18712;DHT22;9485;49.386;8.674;2022-10-26T07:37:47;18.00;90.40
18712;DHT22;9485;49.386;8.674;2022-10-26T07:43:08;18.00;90.50
18712;DHT22;9485;49.386;8.674;2022-10-26T07:48:30;18.00;90.60
18712;DHT22;9485;49.386;8.674;2022-10-26T07:53:50;18.10;90.60
18712;DHT22;9485;49.386;8.674;2022-10-26T07:59:11;18.10;90.60
18712;DHT22;9485;49.386;8.674;2022-10-26T08:04:33;18.00;90.50
18712;DHT22;9485;49.386;8.674;2022-10-26T08:09:54;18.00;90.60
18712;DHT22;9485;49.386;8.674;2022-10-26T08:15:15;18.00;90.70
18712;DHT22;9485;49.386;8.674;2022-10-26T08:20:37;18.10;90.90
18712;DHT22;9485;49.386;8.674;2022-10-26T08:25:58;18.10;90.80
18712;DHT22;9485;49.386;8.674;2022-10-26T08:31:19;18.20;90.80
18712;DHT22;9485;49.386;8.674;2022-10-26T08:36:41;18.30;90.90
18712;DHT22;9485;49.386;8.674;2022-10-26T08:42:04;18.50;91.00
18712;DHT22;9485;49.386;8.674;2022-10-26T08:47:34;18.70;91.00
18712;DHT22;9485;49.386;8.674;2022-10-26T08:53:06;19.00;91.00
18712;DHT22;9485;49.386;8.674;2022-10-26T08:58:37;19.40;91.90
18712;DHT22;9485;49.386;8.674;2022-10-26T09:04:01;20.50;91.70
18712;DHT22;9485;49.386;8.674;2022-10-26T09:09:29;21.80;91.30
18712;DHT22;9485;49.386;8.674;2022-10-26T09:15:10;22.80;87.60
18712;DHT22;9485;49.386;8.674;2022-10-26T09:20:48;23.90;86.30
18712;DHT22;9485;49.386;8.674;2022-10-26T09:26:28;24.80;83.20
18712;DHT22;9485;49.386;8.674;2022-10-26T09:31:53;25.60;79.30
18712;DHT22;9485;49.386;8.674;2022-10-26T09:37:19;25.60;78.70
18712;DHT22;9485;49.386;8.674;2022-10-26T09:42:48;25.30;76.20
18712;DHT22;9485;49.386;8.674;2022-10-26T09:48:19;24.80;76.00
18712;DHT22;9485;49.386;8.674;2022-10-26T09:53:46;24.30;75.90
18712;DHT22;9485;49.386;8.674;2022-10-26T09:59:10;23.70;77.10
18712;DHT22;9485;49.386;8.674;2022-10-26T10:04:32;23.50;78.70
18712;DHT22;9485;49.386;8.674;2022-10-26T10:10:07;23.80;81.00
18712;DHT22;9485;49.386;8.674;2022-10-26T10:15:35;24.50;76.30
18712;DHT22;9485;49.386;8.674;2022-10-26T10:20:57;25.00;80.00
18712;DHT22;9485;49.386;8.674;2022-10-26T10:26:19;25.70;78.40
18712;DHT22;9485;49.386;8.674;2022-10-26T10:31:41;26.00;76.80
18712;DHT22;9485;49.386;8.674;2022-10-26T10:37:23;25.90;74.50
18712;DHT22;9485;49.386;8.674;2022-10-26T10:42:47;25.70;74.20
18712;DHT22;9485;49.386;8.674;2022-10-26T10:48:16;25.40;74.50
18712;DHT22;9485;49.386;8.674;2022-10-26T10:53:44;25.10;73.90
18712;DHT22;9485;49.386;8.674;2022-10-26T10:59:20;24.90;74.80
18712;DHT22;9485;49.386;8.674;2022-10-26T11:05:20;24.70;75.20
18712;DHT22;9485;49.386;8.674;2022-10-26T11:10:46;24.60;74.40
18712;DHT22;9485;49.386;8.674;2022-10-26T11:16:14;24.50;76.40
18712;DHT22;9485;49.386;8.674;2022-10-26T11:21:43;24.40;76.40
18712;DHT22;9485;49.386;8.674;2022-10-26T11:27:13;24.40;76.70
18712;DHT22;9485;49.386;8.674;2022-10-26T11:32:40;24.40;77.00
18712;DHT22;9485;49.386;8.674;2022-10-26T11:38:13;24.40;76.60
18712;DHT22;9485;49.386;8.674;2022-10-26T11:43:44;24.40;75.70
18712;DHT22;9485;49.386;8.674;2022-10-26T11:49:11;24.40;76.70
18712;DHT22;9485;49.386;8.674;2022-10-26T11:54:40;24.30;76.40
18712;DHT22;9485;49.386;8.674;2022-10-26T12:00:08;24.20;76.80
18712;DHT22;9485;49.386;8.674;2022-10-26T12:05:42;24.20;77.70
18712;DHT22;9485;49.386;8.674;2022-10-26T12:11:17;24.20;76.80
18712;DHT22;9485;49.386;8.674;2022-10-26T12:16:51;24.20;76.70
18712;DHT22;9485;49.386;8.674;2022-10-26T12:22:20;24.10;77.40
18712;DHT22;9485;49.386;8.674;2022-10-26T12:27:52;24.00;78.10
18712;DHT22;9485;49.386;8.674;2022-10-26T12:33:27;24.00;77.90
18712;DHT22;9485;49.386;8.674;2022-10-26T12:38:58;24.00;76.40
18712;DHT22;9485;49.386;8.674;2022-10-26T12:44:34;24.00;77.60
18712;DHT22;9485;49.386;8.674;2022-10-26T12:49:58;24.10;77.60
18712;DHT22;9485;49.386;8.674;2022-10-26T12:55:41;24.30;79.10
18712;DHT22;9485;49.386;8.674;2022-10-26T13:01:29;24.60;76.70
18712;DHT22;9485;49.386;8.674;2022-10-26T13:07:24;24.80;77.50
18712;DHT22;9485;49.386;8.674;2022-10-26T13:12:48;25.10;76.20
18712;DHT22;9485;49.386;8.674;2022-10-26T13:18:16;25.30;79.10
18712;DHT22;9485;49.386;8.674;2022-10-26T13:23:40;25.40;75.60
18712;DHT22;9485;49.386;8.674;2022-10-26T13:29:03;25.40;76.60
18712;DHT22;9485;49.386;8.674;2022-10-26T13:34:27;25.30;76.70
18712;DHT22;9485;49.386;8.674;2022-10-26T13:39:51;25.30;75.90
18712;DHT22;9485;49.386;8.674;2022-10-26T13:45:17;25.40;76.90
18712;DHT22;9485;49.386;8.674;2022-10-26T13:50:46;25.40;75.90
18712;DHT22;9485;49.386;8.674;2022-10-26T13:56:17;25.50;74.70
18712;DHT22;9485;49.386;8.674;2022-10-26T14:01:43;25.40;74.30
18712;DHT22;9485;49.386;8.674;2022-10-26T14:07:10;25.30;75.60
18712;DHT22;9485;49.386;8.674;2022-10-26T14:12:37;25.20;75.20
18712;DHT22;9485;49.386;8.674;2022-10-26T14:18:00;25.00;75.30
18712;DHT22;9485;49.386;8.674;2022-10-26T14:23:27;25.00;75.30
18712;DHT22;9485;49.386;8.674;2022-10-26T14:28:54;24.90;74.70
18712;DHT22;9485;49.386;8.674;2022-10-26T14:34:17;24.80;75.70
18712;DHT22;9485;49.386;8.674;2022-10-26T14:39:42;24.70;75.80
18712;DHT22;9485;49.386;8.674;2022-10-26T14:45:22;24.70;75.40
18712;DHT22;9485;49.386;8.674;2022-10-26T14:50:56;24.60;74.20
18712;DHT22;9485;49.386;8.674;2022-10-26T14:56:25;24.50;74.00
18712;DHT22;9485;49.386;8.674;2022-10-26T15:01:52;24.40;74.90
18712;DHT22;9485;49.386;8.674;2022-10-26T15:07:15;24.30;75.30
18712;DHT22;9485;49.386;8.674;2022-10-26T15:12:38;24.20;75.80
18712;DHT22;9485;49.386;8.674;2022-10-26T15:17:59;24.20;76.00
18712;DHT22;9485;49.386;8.674;2022-10-26T15:23:20;24.00;76.30
18712;DHT22;9485;49.386;8.674;2022-10-26T15:28:44;24.00;76.60
18712;DHT22;9485;49.386;8.674;2022-10-26T15:34:13;23.90;76.50
18712;DHT22;9485;49.386;8.674;2022-10-26T15:39:36;23.80;75.90
18712;DHT22;9485;49.386;8.674;2022-10-26T15:44:58;23.60;76.80
18712;DHT22;9485;49.386;8.674;2022-10-26T15:50:20;23.50;76.70
18712;DHT22;9485;49.386;8.674;2022-10-26T15:55:42;23.40;77.20
18712;DHT22;9485;49.386;8.674;2022-10-26T16:01:04;23.20;77.20
18712;DHT22;9485;49.386;8.674;2022-10-26T16:06:27;23.10;77.30
18712;DHT22;9485;49.386;8.674;2022-10-26T16:11:49;22.90;77.30
18712;DHT22;9485;49.386;8.674;2022-10-26T16:17:11;22.80;78.10
18712;DHT22;9485;49.386;8.674;2022-10-26T16:22:31;22.70;78.00
18712;DHT22;9485;49.386;8.674;2022-10-26T16:27:53;22.50;78.20
18712;DHT22;9485;49.386;8.674;2022-10-26T16:33:16;22.30;78.40
18712;DHT22;9485;49.386;8.674;2022-10-26T16:38:36;22.00;78.50
18712;DHT22;9485;49.386;8.674;2022-10-26T16:43:57;21.80;78.90
18712;DHT22;9485;49.386;8.674;2022-10-26T16:49:19;21.50;79.30
18712;DHT22;9485;49.386;8.674;2022-10-26T16:55:06;21.40;79.70
18712;DHT22;9485;49.386;8.674;2022-10-26T17:00:29;21.10;80.20
18712;DHT22;9485;49.386;8.674;2022-10-26T17:05:55;20.90;80.60
18712;DHT22;9485;49.386;8.674;2022-10-26T17:11:18;20.80;80.60
18712;DHT22;9485;49.386;8.674;2022-10-26T17:16:40;20.60;81.10
18712;DHT22;9485;49.386;8.674;2022-10-26T17:22:02;20.50;81.50
18712;DHT22;9485;49.386;8.674;2022-10-26T17:27:23;20.30;81.80
18712;DHT22;9485;49.386;8.674;2022-10-26T17:32:44;20.20;82.20
18712;DHT22;9485;49.386;8.674;2022-10-26T17:38:08;20.10;82.40
18712;DHT22;9485;49.386;8.674;2022-10-26T17:43:29;19.90;82.50
18712;DHT22;9485;49.386;8.674;2022-10-26T17:48:53;19.80;82.90
18712;DHT22;9485;49.386;8.674;2022-10-26T17:54:16;19.70;83.10
18712;DHT22;9485;49.386;8.674;2022-10-26T17:59:38;19.60;83.40
18712;DHT22;9485;49.386;8.674;2022-10-26T18:04:58;19.50;83.70
18712;DHT22;9485;49.386;8.674;2022-10-26T18:10:20;19.40;84.30
18712;DHT22;9485;49.386;8.674;2022-10-26T18:15:41;19.30;85.00
18712;DHT22;9485;49.386;8.674;2022-10-26T18:21:04;19.30;85.00
18712;DHT22;9485;49.386;8.674;2022-10-26T18:26:28;19.20;85.20
18712;DHT22;9485;49.386;8.674;2022-10-26T18:31:49;19.20;85.30
18712;DHT22;9485;49.386;8.674;2022-10-26T18:37:10;19.10;85.50
18712;DHT22;9485;49.386;8.674;2022-10-26T18:42:32;19.10;85.60
18712;DHT22;9485;49.386;8.674;2022-10-26T18:47:52;19.10;85.80
18712;DHT22;9485;49.386;8.674;2022-10-26T18:53:13;19.00;85.90
18712;DHT22;9485;49.386;8.674;2022-10-26T18:58:37;18.90;86.00
18712;DHT22;9485;49.386;8.674;2022-10-26T19:04:00;18.90;86.00
18712;DHT22;9485;49.386;8.674;2022-10-26T19:09:21;18.80;86.10
18712;DHT22;9485;49.386;8.674;2022-10-26T19:14:45;18.70;86.40
18712;DHT22;9485;49.386;8.674;2022-10-26T19:20:06;18.60;86.50
18712;DHT22;9485;49.386;8.674;2022-10-26T19:25:31;18.50;86.70
18712;DHT22;9485;49.386;8.674;2022-10-26T19:30:52;18.50;86.90
18712;DHT22;9485;49.386;8.674;2022-10-26T19:36:13;18.40;86.90
18712;DHT22;9485;49.386;8.674;2022-10-26T19:41:34;18.30;87.10
18712;DHT22;9485;49.386;8.674;2022-10-26T19:46:56;18.20;87.30
18712;DHT22;9485;49.386;8.674;2022-10-26T19:52:17;18.10;87.30
18712;DHT22;9485;49.386;8.674;2022-10-26T19:57:37;18.00;87.40
18712;DHT22;9485;49.386;8.674;2022-10-26T20:02:59;17.90;87.70
18712;DHT22;9485;49.386;8.674;2022-10-26T20:08:19;17.90;88.00
18712;DHT22;9485;49.386;8.674;2022-10-26T20:13:40;17.80;88.20
18712;DHT22;9485;49.386;8.674;2022-10-26T20:19:03;17.70;88.40
18712;DHT22;9485;49.386;8.674;2022-10-26T20:24:24;17.70;88.60
18712;DHT22;9485;49.386;8.674;2022-10-26T20:29:45;17.60;88.80
18712;DHT22;9485;49.386;8.674;2022-10-26T20:35:07;17.50;89.50
18712;DHT22;9485;49.386;8.674;2022-10-26T20:40:29;17.50;88.90
18712;DHT22;9485;49.386;8.674;2022-10-26T20:45:50;17.50;89.70
18712;DHT22;9485;49.386;8.674;2022-10-26T20:51:16;17.40;89.00
18712;DHT22;9485;49.386;8.674;2022-10-26T20:56:40;17.40;89.00
18712;DHT22;9485;49.386;8.674;2022-10-26T21:02:01;17.30;89.10
18712;DHT22;9485;49.386;8.674;2022-10-26T21:07:23;17.20;89.20
18712;DHT22;9485;49.386;8.674;2022-10-26T21:12:44;17.20;89.40
18712;DHT22;9485;49.386;8.674;2022-10-26T21:18:05;17.10;89.40
18712;DHT22;9485;49.386;8.674;2022-10-26T21:23:29;17.00;89.30
18712;DHT22;9485;49.386;8.674;2022-10-26T21:28:50;17.00;89.40
18712;DHT22;9485;49.386;8.674;2022-10-26T21:34:13;16.90;89.60
18712;DHT22;9485;49.386;8.674;2022-10-26T21:39:35;16.90;89.70
18712;DHT22;9485;49.386;8.674;2022-10-26T21:44:56;16.80;89.80
18712;DHT22;9485;49.386;8.674;2022-10-26T21:50:16;16.70;90.00
18712;DHT22;9485;49.386;8.674;2022-10-26T21:55:38;16.70;90.00
18712;DHT22;9485;49.386;8.674;2022-10-26T22:01:05;16.60;89.90
18712;DHT22;9485;49.386;8.674;2022-10-26T22:06:27;16.60;89.70
18712;DHT22;9485;49.386;8.674;2022-10-26T22:11:49;16.50;89.60
18712;DHT22;9485;49.386;8.674;2022-10-26T22:17:10;16.30;89.60
18712;DHT22;9485;49.386;8.674;2022-10-26T22:22:30;16.20;89.80
18712;DHT22;9485;49.386;8.674;2022-10-26T22:27:52;16.20;90.00
18712;DHT22;9485;49.386;8.674;2022-10-26T22:33:13;16.10;90.20
18712;DHT22;9485;49.386;8.674;2022-10-26T22:38:33;16.10;90.20
18712;DHT22;9485;49.386;8.674;2022-10-26T22:43:55;16.00;90.20
18712;DHT22;9485;49.386;8.674;2022-10-26T22:49:16;16.00;90.30
18712;DHT22;9485;49.386;8.674;2022-10-26T22:54:37;15.90;90.40
18712;DHT22;9485;49.386;8.674;2022-10-26T22:59:59;15.90;90.70
18712;DHT22;9485;49.386;8.674;2022-10-26T23:05:19;15.90;90.70
18712;DHT22;9485;49.386;8.674;2022-10-26T23:10:40;15.90;90.60
18712;DHT22;9485;49.386;8.674;2022-10-26T23:16:05;15.90;90.60
18712;DHT22;9485;49.386;8.674;2022-10-26T23:21:27;15.90;90.60
18712;DHT22;9485;49.386;8.674;2022-10-26T23:26:48;15.90;90.70
18712;DHT22;9485;49.386;8.674;2022-10-26T23:32:10;15.80;90.60
18712;DHT22;9485;49.386;8.674;2022-10-26T23:37:30;15.80;90.60
18712;DHT22;9485;49.386;8.674;2022-10-26T23:42:51;15.80;90.60
18712;DHT22;9485;49.386;8.674;2022-10-26T23:48:13;15.70;90.60
18712;DHT22;9485;49.386;8.674;2022-10-26T23:53:35;15.70;90.50
18712;DHT22;9485;49.386;8.674;2022-10-26T23:58:56;15.60;90.60
